Impacts METAR Board
IDs:

KBOS - Boston/Logan Intl, MA, US

Updated at: 2100 UTC 15 Jun 2019
Potential Impact None Slight Moderate High
Time 15/09Z 15/10Z 15/11Z 15/12Z 15/13Z 15/14Z 15/15Z 15/16Z 15/17Z 15/18Z 15/19Z 15/20Z 15/21Z
Temp62 64 66 68 73 76 78 80 81 83 83 83 81
Dewpt47 47 48 47 47 47 45 43 44 47 46 48 46
Altim30.04 30.07 30.08 30.09 30.09 30.08 30.05 30.04 30.01 29.98 29.95 29.93 29.91
VIS10 10 10 10 10 10 10 10 10 10 10 10 10
CIG-- -- -- -- -- -- -- -- -- -- -- 250 250
CoverSCTSCTFEWFEWSCTSCTSCTSCTSCTFEWSCTBKNBKN
FltCatVFRVFRVFRVFRVFRVFRVFRVFRVFRVFRVFRVFRVFR
WX--------------------------
WDir260270270260270240230210210220220220210
WSpd10 8 10 9 8 9 10 17 15 15 15 15 18
WGst-- 17 -- -- -- 20 19 23 21 24 26 26 27
Raw hourly METARs
KBOS 150854Z 26010KT 10SM SCT250 17/08 A3004 RMK AO2 SLP172 T01670083 53018
KBOS 150954Z 27008G17KT 10SM FEW220 SCT250 18/08 A3007 RMK AO2 SLP181 T01780083
KBOS 151054Z 27010KT 10SM FEW150 FEW250 19/09 A3008 RMK AO2 SLP186 T01890089
KBOS 151154Z 26009KT 10SM FEW150 FEW250 20/08 A3009 RMK AO2 SLP188 T02000083 10206 20167 51016
KBOS 151254Z 27008KT 10SM SCT120 SCT250 23/08 A3009 RMK AO2 SLP188 T02280083
KBOS 151354Z 24009G20KT 10SM SCT120 SCT250 24/08 A3008 RMK AO2 SLP187 T02440083
KBOS 151454Z 23010G19KT 10SM FEW065 SCT120 SCT250 26/07 A3005 RMK AO2 SLP177 T02560072 58012
KBOS 151554Z 21017G23KT 10SM FEW065 FEW120 SCT250 27/06 A3004 RMK AO2 SLP171 T02670061
KBOS 151654Z 21015G21KT 10SM FEW065 FEW120 SCT250 27/07 A3001 RMK AO2 SLP162 T02720067
KBOS 151754Z 22015G24KT 10SM FEW065 FEW120 FEW250 28/08 A2998 RMK AO2 SLP150 T02830083 10283 20200 58027
KBOS 151854Z 22015G26KT 10SM FEW070 FEW150 SCT250 28/08 A2995 RMK AO2 PK WND 22027/1830 SLP142 T02830078
KBOS 151954Z 22015G26KT 10SM FEW130 BKN250 28/09 A2993 RMK AO2 PK WND 22029/1902 SLP135 T02830089
KBOS 152054Z 21018G27KT 10SM FEW130 BKN250 27/08 A2991 RMK AO2 PK WND 22031/2023 SLP129 T02720078 56021



Page loaded:  21:20 UTC  |   02:20 PM Pacific  |   03:20 PM Mountain  |   04:20 PM Central  |   05:20 PM Eastern

 

ADVISORIES

FORECASTS

FORECASTS

OBSERVATIONS

USER TOOLS

ABOUT US